createdAt,value
2022-11-14T01:39:26.389Z,0
2022-11-14T01:44:25.676Z,0
2022-11-14T01:49:25.924Z,0
2022-11-14T01:54:26.215Z,0
2022-11-14T01:59:26.439Z,0
2022-11-14T02:04:25.473Z,0
2022-11-14T02:09:25.814Z,0
2022-11-14T02:14:26.485Z,0
2022-11-14T02:19:26.144Z,0
2022-11-14T02:24:25.670Z,0
2022-11-14T02:29:25.926Z,0
2022-11-14T02:34:26.161Z,0
2022-11-14T02:39:26.821Z,0
2022-11-14T02:44:26.061Z,0
2022-11-14T02:49:25.609Z,0
2022-11-14T02:54:25.783Z,0
2022-11-14T02:59:26.169Z,0
2022-11-14T03:04:25.960Z,0
2022-11-14T03:09:25.826Z,0
2022-11-14T03:14:25.883Z,0
2022-11-14T03:19:25.529Z,0
2022-11-14T03:24:26.469Z,0
2022-11-14T03:29:26.134Z,0
2022-11-14T03:34:26.178Z,0
2022-11-14T03:39:26.094Z,0
2022-11-14T03:44:26.098Z,0
2022-11-14T03:49:25.746Z,0
2022-11-14T03:54:26.039Z,0
2022-11-14T03:59:25.739Z,0
2022-11-14T04:04:25.759Z,0
2022-11-14T04:09:26.294Z,0
2022-11-14T04:14:26.052Z,0
2022-11-14T04:19:26.464Z,0
2022-11-14T04:24:25.729Z,0
2022-11-14T04:29:25.923Z,0
2022-11-14T04:34:26.352Z,0
2022-11-14T04:39:26.069Z,0
2022-11-14T04:44:26.404Z,0
2022-11-14T04:49:25.561Z,0
2022-11-14T04:54:25.961Z,0
2022-11-14T04:59:26.114Z,0
2022-11-14T05:04:26.408Z,0
2022-11-14T05:09:25.807Z,0
2022-11-14T05:14:26.332Z,0
2022-11-14T05:19:25.888Z,0
2022-11-14T05:24:26.117Z,0
2022-11-14T05:29:26.327Z,0
2022-11-14T05:34:25.789Z,0
2022-11-14T05:39:26.161Z,0
2022-11-14T05:44:26.591Z,0
2022-11-14T05:49:26.484Z,0
2022-11-14T05:54:26.050Z,0
2022-11-14T05:59:26.266Z,0
2022-11-14T06:04:25.785Z,0
2022-11-14T06:09:26.448Z,0
2022-11-14T06:14:25.823Z,0
2022-11-14T06:19:26.160Z,0
2022-11-14T06:24:26.056Z,0
2022-11-14T06:29:35.351Z,0
2022-11-14T06:34:25.905Z,0
2022-11-14T06:39:26.294Z,0
2022-11-14T06:44:31.402Z,0
2022-11-14T06:49:26.801Z,0
2022-11-14T06:54:26.104Z,0
2022-11-14T06:59:26.298Z,0
2022-11-14T07:04:26.530Z,0
2022-11-14T07:09:26.408Z,0
2022-11-14T07:14:26.281Z,0
2022-11-14T07:19:26.572Z,0
2022-11-14T07:24:26.104Z,0
2022-11-14T07:29:26.314Z,5
2022-11-14T07:34:26.334Z,5
2022-11-14T07:39:26.116Z,7
2022-11-14T07:44:26.200Z,7
2022-11-14T07:49:26.408Z,9.4
2022-11-14T07:54:25.892Z,9.4
2022-11-14T07:59:25.970Z,12
2022-11-14T08:04:26.232Z,12
2022-11-14T08:09:26.627Z,19
2022-11-14T08:14:25.753Z,19
2022-11-14T08:19:26.512Z,19
2022-11-14T08:24:25.771Z,19
2022-11-14T08:29:25.951Z,33
2022-11-14T08:34:26.550Z,33
2022-11-14T08:39:26.138Z,31.7
2022-11-14T08:44:26.354Z,31.7
2022-11-14T08:49:26.781Z,33.3
2022-11-14T08:54:25.883Z,33.3
2022-11-14T08:59:26.600Z,35.4
2022-11-14T09:04:26.555Z,35.4
2022-11-14T09:09:26.906Z,32
2022-11-14T09:14:26.077Z,32
2022-11-14T09:19:26.443Z,37.6
2022-11-14T09:24:25.820Z,37.6
2022-11-14T09:29:26.106Z,38.8
2022-11-14T09:34:26.357Z,38.8
2022-11-14T09:39:26.632Z,43.6
2022-11-14T09:44:25.860Z,43.6
2022-11-14T09:49:26.072Z,35
2022-11-14T09:54:26.436Z,35
2022-11-14T09:59:26.712Z,55.7
2022-11-14T10:04:26.000Z,55.7
2022-11-14T10:09:30.891Z,63
2022-11-14T10:14:26.242Z,63
2022-11-14T10:19:26.737Z,54.4
2022-11-14T10:24:26.101Z,54.4
2022-11-14T10:29:26.520Z,60.3
2022-11-14T10:34:26.699Z,60.3
2022-11-14T10:39:25.975Z,62.3
2022-11-14T10:44:26.047Z,62.3
2022-11-14T10:49:26.398Z,73.2
2022-11-14T10:54:26.682Z,73.2
2022-11-14T10:59:26.051Z,81.2
2022-11-14T11:04:26.632Z,81.2
2022-11-14T11:09:26.195Z,104.5
2022-11-14T11:14:27.178Z,104.5
2022-11-14T11:19:27.149Z,118.6
2022-11-14T11:24:25.869Z,118.6
2022-11-14T11:29:26.306Z,107.2
2022-11-14T11:34:26.719Z,107.2
2022-11-14T11:39:26.020Z,87
2022-11-14T11:44:26.412Z,87
2022-11-14T11:49:26.841Z,66.2
2022-11-14T11:54:26.136Z,66.2
2022-11-14T11:59:26.380Z,74.8
2022-11-14T12:04:26.766Z,74.8
2022-11-14T12:10:10.364Z,67.2
2022-11-14T12:14:25.984Z,67.2
2022-11-14T12:19:26.524Z,53.2
2022-11-14T12:24:26.795Z,53.2
2022-11-14T12:29:26.241Z,51.2
2022-11-14T12:34:26.754Z,51.2
2022-11-14T12:39:26.325Z,53.4
2022-11-14T12:44:26.372Z,53.4
2022-11-14T12:49:35.251Z,56
2022-11-14T12:54:26.617Z,56
2022-11-14T12:59:26.820Z,58
2022-11-14T13:04:26.038Z,58
2022-11-14T13:09:26.375Z,129.2
2022-11-14T13:14:26.589Z,129.2
2022-11-14T13:19:26.248Z,106.2
2022-11-14T13:24:26.485Z,106.2
2022-11-14T13:29:26.770Z,118.5
2022-11-14T13:34:26.231Z,118.5
2022-11-14T13:39:26.461Z,61
2022-11-14T13:44:26.919Z,61
2022-11-14T13:49:26.094Z,45.8
2022-11-14T13:54:26.381Z,45.8
2022-11-14T13:59:26.592Z,38
2022-11-14T14:04:25.998Z,38
2022-11-14T14:09:26.288Z,42
2022-11-14T14:14:26.131Z,42
2022-11-14T14:19:26.628Z,39
2022-11-14T14:24:26.813Z,39
2022-11-14T14:29:25.944Z,30.7
2022-11-14T14:34:26.483Z,30.7
2022-11-14T14:39:26.272Z,24.6
2022-11-14T14:44:26.754Z,24.6
2022-11-14T14:49:26.180Z,19.3
2022-11-14T14:54:26.499Z,19.3
2022-11-14T14:59:26.864Z,13.7
2022-11-14T15:04:26.411Z,13.7
2022-11-14T15:09:26.734Z,10.3
2022-11-14T15:14:26.118Z,10.3
2022-11-14T15:19:26.662Z,6.6
2022-11-14T15:24:26.844Z,6.6
2022-11-14T15:29:26.274Z,0
2022-11-14T15:34:26.380Z,0
2022-11-14T15:39:26.354Z,0
2022-11-14T15:44:26.155Z,0
2022-11-14T15:49:25.956Z,0
2022-11-14T15:54:26.481Z,0
2022-11-14T15:59:26.242Z,0
2022-11-14T16:04:26.626Z,0
2022-11-14T16:09:26.148Z,0
2022-11-14T16:14:26.366Z,0
2022-11-14T16:19:26.655Z,0
2022-11-14T16:24:34.499Z,0
2022-11-14T16:29:26.108Z,0
2022-11-14T16:34:26.482Z,0
2022-11-14T16:39:26.999Z,0
2022-11-14T16:44:26.717Z,0
2022-11-14T16:49:26.110Z,0
2022-11-14T16:54:26.898Z,0
2022-11-14T16:59:27.032Z,0
2022-11-14T17:04:26.274Z,0
2022-11-14T17:09:26.667Z,0
2022-11-14T17:14:26.032Z,0
2022-11-14T17:19:26.523Z,0
2022-11-14T17:24:31.759Z,0
2022-11-14T17:29:26.892Z,0
2022-11-14T17:34:26.356Z,0
2022-11-14T17:39:27.051Z,0
2022-11-14T17:44:26.200Z,0
2022-11-14T17:49:26.385Z,0
2022-11-14T17:54:26.534Z,0
2022-11-14T17:59:26.638Z,0
2022-11-14T18:04:26.867Z,0
2022-11-14T18:09:27.010Z,0
2022-11-14T18:14:26.343Z,0
2022-11-14T18:19:26.521Z,0
2022-11-14T18:24:26.712Z,0
2022-11-14T18:29:27.017Z,0
2022-11-14T18:34:26.166Z,0
2022-11-14T18:39:26.547Z,0
2022-11-14T18:44:26.747Z,0
2022-11-14T18:49:26.808Z,0
2022-11-14T18:54:26.953Z,0
2022-11-14T18:59:26.631Z,0
2022-11-14T19:04:27.025Z,0
2022-11-14T19:09:26.773Z,0
2022-11-14T19:14:26.970Z,0
2022-11-14T19:19:26.637Z,0
2022-11-14T19:24:26.900Z,0
2022-11-14T19:29:26.164Z,0
2022-11-14T19:34:26.294Z,0
2022-11-14T19:39:26.717Z,0
2022-11-14T19:44:27.060Z,0
2022-11-14T19:49:26.369Z,0
2022-11-14T19:54:26.925Z,0
2022-11-14T19:59:26.669Z,0
2022-11-14T20:04:26.901Z,0
2022-11-14T20:09:26.199Z,0
2022-11-14T20:14:26.620Z,0
2022-11-14T20:19:26.955Z,0
2022-11-14T20:24:27.227Z,0
2022-11-14T20:29:26.670Z,0
2022-11-14T20:34:26.765Z,0
2022-11-14T20:39:27.114Z,0
2022-11-14T20:44:26.437Z,0
2022-11-14T20:49:26.754Z,0
2022-11-14T20:54:26.573Z,0
2022-11-14T20:59:26.641Z,0
2022-11-14T21:04:26.717Z,0
2022-11-14T21:09:26.373Z,0
2022-11-14T21:14:27.178Z,0
2022-11-14T21:19:26.265Z,0
2022-11-14T21:24:26.574Z,0
2022-11-14T21:29:26.954Z,0
2022-11-14T21:34:26.747Z,0
2022-11-14T21:39:27.117Z,0
2022-11-14T21:44:26.356Z,0
2022-11-14T21:49:26.669Z,0
2022-11-14T21:54:26.934Z,0
2022-11-14T21:59:27.287Z,0
2022-11-14T22:04:26.560Z,0
2022-11-14T22:09:26.592Z,0
2022-11-14T22:14:26.295Z,0
2022-11-14T22:19:26.482Z,0
2022-11-14T22:24:26.872Z,0
2022-11-14T22:29:27.048Z,0
2022-11-14T22:34:26.992Z,0
2022-11-14T22:39:26.983Z,0
2022-11-14T22:44:27.176Z,0
2022-11-14T22:49:26.355Z,0
2022-11-14T22:54:26.773Z,0
2022-11-14T22:59:26.985Z,0
2022-11-14T23:04:26.485Z,0
2022-11-14T23:09:27.069Z,0
2022-11-14T23:14:27.208Z,0
2022-11-14T23:19:26.570Z,0
2022-11-14T23:24:26.957Z,0
2022-11-14T23:29:27.224Z,0
2022-11-14T23:34:27.045Z,0
2022-11-14T23:39:26.659Z,0
2022-11-14T23:44:26.660Z,0
2022-11-14T23:49:27.679Z,0
2022-11-14T23:54:26.557Z,0
2022-11-14T23:59:26.681Z,0
